createdAt,value
2019-02-27T00:01:39.273Z,102011.33
2019-02-27T00:04:08.856Z,102013.20
2019-02-27T00:06:38.603Z,102012.78
2019-02-27T00:09:11.437Z,102008.10
2019-02-27T00:11:45.858Z,102010.02
2019-02-27T00:14:12.302Z,102010.47
2019-02-27T00:16:44.629Z,102003.52
2019-02-27T00:19:13.797Z,102009.78
2019-02-27T00:21:43.536Z,102007.60
2019-02-27T00:24:13.533Z,102008.97
2019-02-27T00:26:44.436Z,102010.84
2019-02-27T00:29:13.655Z,102013.91
2019-02-27T00:31:46.084Z,102010.91
2019-02-27T00:34:14.496Z,102014.09
2019-02-27T00:36:45.199Z,102009.72
2019-02-27T00:39:14.926Z,102020.30
2019-02-27T00:41:46.008Z,102012.09
2019-02-27T00:44:15.656Z,102014.83
2019-02-27T00:46:46.506Z,102017.20
2019-02-27T00:49:16.289Z,102013.66
2019-02-27T00:51:48.553Z,102007.08
2019-02-27T00:54:22.295Z,102003.74
2019-02-27T00:56:51.786Z,102007.86
2019-02-27T00:59:21.078Z,102012.30
2019-02-27T01:01:50.636Z,102007.61
2019-02-27T01:04:20.056Z,101999.73
2019-02-27T01:06:49.307Z,101999.33
2019-02-27T01:09:19.008Z,101998.23
2019-02-27T01:11:51.531Z,101988.66
2019-02-27T01:14:19.570Z,101986.97
2019-02-27T01:16:50.255Z,101988.44
2019-02-27T01:19:19.993Z,101992.05
2019-02-27T01:21:49.216Z,101994.70
2019-02-27T01:24:18.752Z,101991.18
2019-02-27T01:26:47.989Z,101987.69
2019-02-27T01:29:18.166Z,101983.86
2019-02-27T01:31:48.281Z,101978.66
2019-02-27T01:34:17.544Z,101977.52
2019-02-27T01:36:46.833Z,101977.58
2019-02-27T01:39:16.406Z,101980.70
2019-02-27T01:41:45.663Z,101978.94
2019-02-27T01:44:14.892Z,101974.67
2019-02-27T01:46:44.509Z,101977.42
2019-02-27T01:49:16.061Z,101967.34
2019-02-27T01:51:44.708Z,101962.92
2019-02-27T01:54:15.018Z,101966.09
2019-02-27T01:56:44.876Z,101960.52
2019-02-27T01:59:16.703Z,101962.77
2019-02-27T02:01:45.514Z,101953.19
2019-02-27T02:04:14.738Z,101953.67
2019-02-27T02:06:44.283Z,101952.84
2019-02-27T02:09:31.374Z,101946.80
2019-02-27T02:12:01.457Z,101936.41
2019-02-27T02:15:04.649Z,101933.45
2019-02-27T02:18:18.716Z,101929.61
2019-02-27T02:21:25.289Z,101922.73
2019-02-27T02:24:33.959Z,101918.14
2019-02-27T02:28:02.862Z,101914.31
2019-02-27T02:31:11.023Z,101913.20
2019-02-27T02:34:05.075Z,101913.42
2019-02-27T02:37:02.557Z,101911.82
2019-02-27T02:40:03.430Z,101901.42
2019-02-27T02:43:03.189Z,101905.38
2019-02-27T02:46:08.065Z,101913.33
2019-02-27T02:49:07.870Z,101908.08
2019-02-27T02:52:28.718Z,101910.33
2019-02-27T02:55:48.799Z,101908.30
2019-02-27T02:58:39.015Z,101912.75
2019-02-27T03:01:15.947Z,101909.27
2019-02-27T03:04:01.045Z,101907.07
2019-02-27T03:07:11.110Z,101900.97
2019-02-27T03:10:21.386Z,101904.06
2019-02-27T03:13:31.225Z,101895.88
2019-02-27T03:16:26.091Z,101891.98
2019-02-27T03:19:20.939Z,101888.98
2019-02-27T03:22:20.247Z,101894.86
2019-02-27T03:25:49.249Z,101884.78
2019-02-27T03:29:01.404Z,101887.88
2019-02-27T03:32:00.624Z,101887.06
2019-02-27T03:34:56.296Z,101881.91
2019-02-27T03:37:37.490Z,101882.44
2019-02-27T03:40:34.479Z,101875.50
2019-02-27T03:43:54.004Z,101876.03
2019-02-27T03:46:41.799Z,101882.62
2019-02-27T03:49:48.114Z,101874.48
2019-02-27T03:52:50.238Z,101873.17
2019-02-27T03:55:51.176Z,101869.77
2019-02-27T03:59:16.523Z,101868.50
2019-02-27T04:02:23.263Z,101869.42
2019-02-27T04:05:46.045Z,101865.16
2019-02-27T04:08:45.022Z,101863.10
2019-02-27T04:11:14.466Z,101853.63
2019-02-27T04:13:44.005Z,101854.55
2019-02-27T04:16:16.329Z,101862.55
2019-02-27T04:18:45.677Z,101863.38
2019-02-27T04:21:15.362Z,101859.02
2019-02-27T04:23:48.016Z,101855.17
2019-02-27T04:26:15.593Z,101859.14
2019-02-27T04:28:45.096Z,101866.60
2019-02-27T04:31:14.348Z,101861.37
2019-02-27T04:33:43.673Z,101866.17
2019-02-27T04:36:13.492Z,101862.38
2019-02-27T04:38:42.712Z,101866.26
2019-02-27T04:41:12.007Z,101864.12
2019-02-27T04:43:41.521Z,101872.84
2019-02-27T04:46:10.759Z,101870.31
2019-02-27T04:48:40.062Z,101871.22
2019-02-27T04:51:09.605Z,101880.87
2019-02-27T04:53:40.716Z,101871.31
2019-02-27T04:56:09.924Z,101869.18
2019-02-27T04:58:42.813Z,101865.30
2019-02-27T05:01:10.372Z,101872.79
2019-02-27T05:03:39.625Z,101873.70
2019-02-27T05:06:09.161Z,101867.20
2019-02-27T05:08:38.409Z,101862.84
2019-02-27T05:11:07.688Z,101863.80
2019-02-27T05:13:37.391Z,101869.90
2019-02-27T05:16:06.612Z,101864.31
2019-02-27T05:18:35.882Z,101855.63
2019-02-27T05:21:05.690Z,101864.39
2019-02-27T05:23:35.020Z,101865.27
2019-02-27T05:26:07.034Z,101869.23
2019-02-27T05:28:36.255Z,101873.67
2019-02-27T05:31:05.505Z,101871.05
2019-02-27T05:33:36.488Z,101869.27
2019-02-27T05:36:08.841Z,101869.23
2019-02-27T05:38:38.207Z,101868.88
2019-02-27T05:41:07.473Z,101871.09
2019-02-27T05:43:36.702Z,101870.73
2019-02-27T05:46:06.226Z,101875.97
2019-02-27T05:48:35.506Z,101877.75
2019-02-27T05:51:04.963Z,101870.42
2019-02-27T05:53:35.697Z,101879.13
2019-02-27T05:56:07.726Z,101873.98
2019-02-27T05:58:36.955Z,101868.71
2019-02-27T06:01:06.529Z,101869.30
2019-02-27T06:03:35.788Z,101865.38
2019-02-27T06:06:06.886Z,101867.55
2019-02-27T06:08:38.188Z,101861.92
2019-02-27T06:11:07.491Z,101867.63
2019-02-27T06:13:38.994Z,101870.28
2019-02-27T06:16:09.318Z,101878.63
2019-02-27T06:18:38.948Z,101877.36
2019-02-27T06:21:08.226Z,101876.89
2019-02-27T06:23:38.484Z,101875.11
2019-02-27T06:26:08.034Z,101872.53
2019-02-27T06:28:37.310Z,101873.95
2019-02-27T06:31:07.029Z,101878.70
2019-02-27T06:33:36.378Z,101871.22
2019-02-27T06:36:08.551Z,101866.50
2019-02-27T06:38:38.110Z,101858.62
2019-02-27T06:41:07.970Z,101858.73
2019-02-27T06:43:37.239Z,101855.28
2019-02-27T06:46:06.788Z,101856.95
2019-02-27T06:48:36.064Z,101855.61
2019-02-27T06:51:05.338Z,101856.48
2019-02-27T06:53:34.915Z,101855.17
2019-02-27T06:56:05.047Z,101852.16
2019-02-27T06:58:34.904Z,101857.39
2019-02-27T07:01:09.213Z,101854.73
2019-02-27T07:03:35.640Z,101856.05
2019-02-27T07:06:06.924Z,101858.19
2019-02-27T07:08:38.187Z,101859.50
2019-02-27T07:11:15.039Z,101858.98
2019-02-27T07:13:45.498Z,101860.33
2019-02-27T07:16:14.730Z,101856.38
2019-02-27T07:18:44.205Z,101861.96
2019-02-27T07:21:15.862Z,101865.41
2019-02-27T07:23:45.215Z,101862.28
2019-02-27T07:26:15.906Z,101862.28
2019-02-27T07:28:45.811Z,101863.19
2019-02-27T07:31:17.582Z,101861.73
2019-02-27T07:33:46.217Z,101862.53
2019-02-27T07:36:15.789Z,101859.83
2019-02-27T07:38:45.044Z,101862.84
2019-02-27T07:41:17.543Z,101855.44
2019-02-27T07:43:45.608Z,101856.27
2019-02-27T07:46:22.216Z,101858.69
2019-02-27T07:48:48.663Z,101858.56
2019-02-27T07:51:20.839Z,101844.83
2019-02-27T07:53:51.474Z,101846.84
2019-02-27T07:56:20.249Z,101852.21
2019-02-27T07:58:49.651Z,101849.66
2019-02-27T08:01:20.985Z,101845.14
2019-02-27T08:03:50.400Z,101838.20
2019-02-27T08:06:19.697Z,101838.16
2019-02-27T08:08:49.250Z,101834.06
2019-02-27T08:11:18.680Z,101832.34
2019-02-27T08:13:47.981Z,101830.23
2019-02-27T08:16:17.653Z,101827.22
2019-02-27T08:18:46.992Z,101827.06
2019-02-27T08:21:16.492Z,101830.28
2019-02-27T08:23:48.840Z,101830.41
2019-02-27T08:26:18.523Z,101824.92
2019-02-27T08:28:47.825Z,101826.77
2019-02-27T08:31:18.332Z,101826.23
2019-02-27T08:33:47.644Z,101830.00
2019-02-27T08:36:16.973Z,101825.78
2019-02-27T08:38:46.604Z,101826.94
2019-02-27T08:41:15.975Z,101821.41
2019-02-27T08:43:45.254Z,101834.87
2019-02-27T08:46:14.828Z,101822.94
2019-02-27T08:48:44.128Z,101827.27
2019-02-27T08:51:15.216Z,101820.10
2019-02-27T08:53:52.510Z,101815.73
2019-02-27T08:56:22.784Z,101818.00
2019-02-27T08:58:52.554Z,101813.42
2019-02-27T09:01:22.425Z,101818.86
2019-02-27T09:03:51.756Z,101813.42
2019-02-27T09:06:27.367Z,101824.38
2019-02-27T09:08:53.379Z,101817.12
2019-02-27T09:11:23.765Z,101821.85
2019-02-27T09:13:53.070Z,101816.82
2019-02-27T09:16:23.020Z,101816.03
2019-02-27T09:18:54.717Z,101811.70
2019-02-27T09:22:10.129Z,101803.05
2019-02-27T09:24:39.710Z,101804.88
2019-02-27T09:27:08.975Z,101798.53
2019-02-27T09:29:38.259Z,101786.79
2019-02-27T09:32:09.313Z,101780.83
2019-02-27T09:34:39.802Z,101778.42
2019-02-27T09:37:09.160Z,101785.04
2019-02-27T09:39:38.780Z,101790.72
2019-02-27T09:42:08.680Z,101776.28
2019-02-27T09:44:38.068Z,101775.48
2019-02-27T09:47:07.628Z,101767.47
2019-02-27T09:49:40.318Z,101761.36
2019-02-27T09:52:07.921Z,101755.01
2019-02-27T09:54:37.511Z,101753.13
2019-02-27T09:57:06.778Z,101745.94
2019-02-27T09:59:36.210Z,101743.00
2019-02-27T10:02:09.015Z,101737.41
2019-02-27T10:04:39.563Z,101734.58
2019-02-27T10:07:10.037Z,101727.25
2019-02-27T10:09:41.145Z,101723.50
2019-02-27T10:12:10.590Z,101708.06
2019-02-27T10:14:40.426Z,101709.52
2019-02-27T10:17:10.104Z,101710.97
2019-02-27T10:19:40.406Z,101710.29
2019-02-27T10:22:09.883Z,101707.42
2019-02-27T10:24:40.339Z,101705.75
2019-02-27T10:27:10.006Z,101703.23
2019-02-27T10:29:39.489Z,101702.91
2019-02-27T10:32:09.535Z,101696.83
2019-02-27T10:34:39.857Z,101693.47
2019-02-27T10:37:12.851Z,101695.50
2019-02-27T10:39:40.616Z,101684.78
2019-02-27T10:42:10.018Z,101678.02
2019-02-27T10:44:40.075Z,101675.70
2019-02-27T10:47:09.646Z,101668.68
2019-02-27T10:49:39.302Z,101670.58
2019-02-27T10:52:09.000Z,101661.86
2019-02-27T10:54:39.979Z,101659.98
2019-02-27T10:57:09.292Z,101656.69
2019-02-27T10:59:39.002Z,101649.52
2019-02-27T11:02:09.734Z,101650.31
2019-02-27T11:04:40.054Z,101642.37
2019-02-27T11:07:09.478Z,101633.66
2019-02-27T11:09:41.228Z,101634.10
2019-02-27T11:12:10.251Z,101628.29
2019-02-27T11:14:39.694Z,101622.95
2019-02-27T11:17:09.529Z,101619.48
2019-02-27T11:19:39.421Z,101611.81
2019-02-27T11:22:08.891Z,101607.32
2019-02-27T11:24:39.177Z,101601.42
2019-02-27T11:27:08.934Z,101608.99
2019-02-27T11:29:38.369Z,101593.64
2019-02-27T11:32:08.806Z,101598.42
2019-02-27T11:34:38.953Z,101592.64
2019-02-27T11:37:12.708Z,101582.74
2019-02-27T11:39:42.551Z,101583.18
2019-02-27T11:42:11.871Z,101574.58
2019-02-27T11:44:41.713Z,101568.75
2019-02-27T11:47:12.129Z,101561.99
2019-02-27T11:49:42.106Z,101555.92
2019-02-27T11:52:12.447Z,101552.75
2019-02-27T11:54:44.381Z,101549.37
2019-02-27T11:57:13.736Z,101544.56
2019-02-27T11:59:46.477Z,101537.11
2019-02-27T12:02:18.718Z,101540.59
2019-02-27T12:04:53.504Z,101538.30
2019-02-27T12:07:27.764Z,101533.70
2019-02-27T12:09:58.890Z,101519.67
2019-02-27T12:12:29.422Z,101520.05
2019-02-27T12:14:59.352Z,101514.50
2019-02-27T12:17:28.761Z,101517.02
2019-02-27T12:20:00.396Z,101512.02
2019-02-27T12:22:32.941Z,101505.84
2019-02-27T12:25:03.422Z,101508.58
2019-02-27T12:27:48.444Z,101504.28
2019-02-27T12:30:09.456Z,101496.88
2019-02-27T12:32:41.311Z,101495.50
2019-02-27T12:35:13.555Z,101488.23
2019-02-27T12:37:42.970Z,101489.90
2019-02-27T12:40:15.091Z,101483.27
2019-02-27T12:42:44.890Z,101483.59
2019-02-27T12:45:16.495Z,101474.39
2019-02-27T12:47:46.233Z,101475.46
2019-02-27T12:50:17.475Z,101470.86
2019-02-27T12:52:48.138Z,101465.18
2019-02-27T12:55:20.352Z,101460.61
2019-02-27T12:57:52.344Z,101448.19
2019-02-27T13:00:22.894Z,101449.26
2019-02-27T13:02:53.709Z,101447.69
2019-02-27T13:05:26.279Z,101444.05
2019-02-27T13:07:55.256Z,101444.86
2019-02-27T13:10:25.192Z,101439.94
2019-02-27T13:12:54.551Z,101437.88
2019-02-27T13:15:24.207Z,101429.48
2019-02-27T13:17:57.577Z,101412.87
2019-02-27T13:20:27.056Z,101419.80
2019-02-27T13:22:56.480Z,101413.71
2019-02-27T13:25:26.647Z,101411.84
2019-02-27T13:27:56.362Z,101399.34
2019-02-27T13:30:26.144Z,101395.84
2019-02-27T13:33:00.715Z,101387.83
2019-02-27T13:35:28.555Z,101387.96
2019-02-27T13:37:58.958Z,101381.16
2019-02-27T13:40:28.868Z,101375.36
2019-02-27T13:43:01.183Z,101374.53
2019-02-27T13:45:34.048Z,101376.42
2019-02-27T13:48:10.242Z,101372.22
2019-02-27T13:50:45.212Z,101373.63
2019-02-27T13:53:17.284Z,101371.09
2019-02-27T13:55:52.805Z,101373.70
2019-02-27T13:58:22.396Z,101364.30
2019-02-27T14:00:53.700Z,101367.16
2019-02-27T14:03:26.825Z,101363.24
2019-02-27T14:05:56.157Z,101356.51
2019-02-27T14:08:32.097Z,101356.11
2019-02-27T14:11:02.566Z,101354.95
2019-02-27T14:13:32.697Z,101346.72
2019-02-27T14:16:05.040Z,101347.80
2019-02-27T14:18:34.640Z,101345.90
2019-02-27T14:21:03.917Z,101340.07
2019-02-27T14:23:33.251Z,101336.68
2019-02-27T14:26:06.744Z,101333.62
2019-02-27T14:28:35.807Z,101328.15
2019-02-27T14:31:09.018Z,101322.57
2019-02-27T14:33:36.280Z,101317.55
2019-02-27T14:36:09.241Z,101312.69
2019-02-27T14:38:38.829Z,101311.08
2019-02-27T14:41:08.376Z,101314.30
2019-02-27T14:43:37.675Z,101306.52
2019-02-27T14:46:11.549Z,101298.95
2019-02-27T14:48:40.623Z,101294.08
2019-02-27T14:51:11.192Z,101294.08
2019-02-27T14:53:41.203Z,101290.09
2019-02-27T14:56:10.797Z,101290.78
2019-02-27T14:58:40.721Z,101282.48
2019-02-27T15:01:11.806Z,101286.17
2019-02-27T15:03:44.393Z,101282.81
2019-02-27T15:06:19.373Z,101283.13
2019-02-27T15:08:57.470Z,101278.16
2019-02-27T15:11:20.512Z,101275.14
2019-02-27T15:13:51.223Z,101272.00
2019-02-27T15:16:21.899Z,101263.20
2019-02-27T15:18:55.033Z,101256.87
2019-02-27T15:21:25.456Z,101250.34
2019-02-27T15:24:01.056Z,101254.82
2019-02-27T15:26:26.727Z,101248.05
2019-02-27T15:28:56.088Z,101249.95
2019-02-27T15:31:25.691Z,101247.81
2019-02-27T15:33:55.383Z,101251.21
2019-02-27T15:36:29.297Z,101238.92
2019-02-27T15:38:56.543Z,101232.54
2019-02-27T15:41:27.027Z,101232.04
2019-02-27T15:44:00.291Z,101229.54
2019-02-27T15:46:27.989Z,101226.53
2019-02-27T15:49:00.259Z,101220.03
2019-02-27T15:51:32.313Z,101214.23
2019-02-27T15:54:03.828Z,101213.89
2019-02-27T15:56:33.257Z,101208.62
2019-02-27T15:59:07.436Z,101210.80
2019-02-27T16:01:35.626Z,101207.47
2019-02-27T16:04:08.407Z,101208.05
2019-02-27T16:06:39.833Z,101206.47
2019-02-27T16:09:10.018Z,101199.60
2019-02-27T16:11:39.458Z,101206.03
2019-02-27T16:14:10.242Z,101197.22
2019-02-27T16:16:42.258Z,101193.84
2019-02-27T16:19:11.948Z,101196.77
2019-02-27T16:21:43.480Z,101187.66
2019-02-27T16:24:14.152Z,101186.44
2019-02-27T16:26:43.952Z,101184.98
2019-02-27T16:29:13.959Z,101178.56
2019-02-27T16:31:43.701Z,101171.38
2019-02-27T16:34:15.103Z,101173.89
2019-02-27T16:36:46.935Z,101176.28
2019-02-27T16:39:16.315Z,101176.31
2019-02-27T16:41:56.311Z,101174.43
2019-02-27T16:44:31.761Z,101176.64
2019-02-27T16:47:03.601Z,101177.95
2019-02-27T16:49:34.910Z,101176.54
2019-02-27T16:52:08.925Z,101181.64
2019-02-27T16:54:38.901Z,101177.96
2019-02-27T16:57:10.420Z,101174.63
2019-02-27T16:59:46.914Z,101176.52
2019-02-27T17:02:17.324Z,101178.97
2019-02-27T17:04:47.996Z,101171.69
2019-02-27T17:07:18.255Z,101172.92
2019-02-27T17:09:48.858Z,101171.69
2019-02-27T17:12:19.347Z,101170.34
2019-02-27T17:14:51.557Z,101172.76
2019-02-27T17:17:25.143Z,101169.80
2019-02-27T17:19:56.047Z,101163.33
2019-02-27T17:22:32.646Z,101166.67
2019-02-27T17:25:02.206Z,101159.02
2019-02-27T17:27:35.139Z,101157.42
2019-02-27T17:30:27.461Z,101155.81
2019-02-27T17:33:04.118Z,101159.27
2019-02-27T17:35:41.907Z,101162.86
2019-02-27T17:38:13.741Z,101167.84
2019-02-27T17:40:44.380Z,101161.12
2019-02-27T17:43:28.504Z,101159.37
2019-02-27T17:45:56.812Z,101160.30
2019-02-27T17:48:33.565Z,101158.73
2019-02-27T17:51:11.887Z,101153.50
2019-02-27T17:53:50.205Z,101144.38
2019-02-27T17:56:22.691Z,101146.34
2019-02-27T17:58:55.197Z,101147.95
2019-02-27T18:01:27.115Z,101153.31
2019-02-27T18:04:00.076Z,101155.66
2019-02-27T18:06:34.819Z,101149.73
2019-02-27T18:09:11.173Z,101149.58
2019-02-27T18:11:44.507Z,101151.69
2019-02-27T18:14:16.165Z,101151.95
2019-02-27T18:16:47.588Z,101159.48
2019-02-27T18:19:18.210Z,101158.05
2019-02-27T18:21:48.733Z,101160.62
2019-02-27T18:24:20.136Z,101157.72
2019-02-27T18:26:51.902Z,101160.28
2019-02-27T18:29:22.827Z,101164.05
2019-02-27T18:31:53.933Z,101154.78
2019-02-27T18:34:25.878Z,101154.55
2019-02-27T18:36:57.562Z,101153.23
2019-02-27T18:39:27.689Z,101147.19
2019-02-27T18:41:58.562Z,101146.23
2019-02-27T18:44:28.766Z,101142.37
2019-02-27T18:47:01.781Z,101137.47
2019-02-27T18:49:31.863Z,101132.57
2019-02-27T18:52:21.014Z,101130.21
2019-02-27T18:54:49.907Z,101122.09
2019-02-27T18:57:21.035Z,101117.08
2019-02-27T18:59:53.287Z,101120.70
2019-02-27T19:02:25.611Z,101110.78
2019-02-27T19:04:59.266Z,101114.86
2019-02-27T19:07:29.827Z,101106.52
2019-02-27T19:10:03.718Z,101105.30
2019-02-27T19:12:37.916Z,101101.91
2019-02-27T19:15:11.358Z,101102.19
2019-02-27T19:17:41.796Z,101107.52
2019-02-27T19:20:23.968Z,101099.75
2019-02-27T19:22:54.159Z,101097.20
2019-02-27T19:25:34.168Z,101096.06
2019-02-27T19:28:03.956Z,101094.48
2019-02-27T19:30:34.757Z,101083.20
2019-02-27T19:33:05.326Z,101080.66
2019-02-27T19:35:36.018Z,101083.19
2019-02-27T19:38:13.066Z,101081.97
2019-02-27T19:40:43.052Z,101081.57
2019-02-27T19:43:15.185Z,101075.05
2019-02-27T19:45:45.916Z,101071.39
2019-02-27T19:48:20.102Z,101069.77
2019-02-27T19:50:52.687Z,101073.28
2019-02-27T19:53:29.195Z,101076.20
2019-02-27T19:56:07.757Z,101070.62
2019-02-27T19:58:44.729Z,101065.88
2019-02-27T20:01:15.110Z,101069.95
2019-02-27T20:03:45.893Z,101070.52
2019-02-27T20:06:35.971Z,101066.45
2019-02-27T20:09:08.409Z,101064.65
2019-02-27T20:11:40.286Z,101061.13
2019-02-27T20:14:12.177Z,101057.92
2019-02-27T20:16:42.069Z,101053.86
2019-02-27T20:19:12.363Z,101056.28
2019-02-27T20:21:44.450Z,101050.89
2019-02-27T20:24:15.656Z,101050.99
2019-02-27T20:26:47.050Z,101045.58
2019-02-27T20:29:17.952Z,101047.36
2019-02-27T20:31:48.096Z,101045.38
2019-02-27T20:34:21.203Z,101043.86
2019-02-27T20:36:52.987Z,101040.48
2019-02-27T20:39:24.332Z,101042.01
2019-02-27T20:41:54.403Z,101035.56
2019-02-27T20:44:24.385Z,101033.58
2019-02-27T20:46:57.104Z,101032.92
2019-02-27T20:49:27.666Z,101031.30
2019-02-27T20:51:57.846Z,101024.66
2019-02-27T20:54:32.751Z,101021.16
2019-02-27T20:57:04.320Z,101012.80
2019-02-27T20:59:34.151Z,101010.13
2019-02-27T21:02:07.655Z,101014.08
2019-02-27T21:04:39.143Z,101012.96
2019-02-27T21:07:09.493Z,101009.06
2019-02-27T21:09:42.229Z,101009.27
2019-02-27T21:12:11.069Z,101011.28
2019-02-27T21:14:41.410Z,101007.48
2019-02-27T21:17:11.711Z,101009.36
2019-02-27T21:19:41.536Z,101009.92
2019-02-27T21:22:11.641Z,101007.28
2019-02-27T21:24:42.122Z,101003.48
2019-02-27T21:27:11.853Z,101000.52
2019-02-27T21:29:43.312Z,101001.34
2019-02-27T21:32:13.505Z,100999.27
2019-02-27T21:34:43.269Z,100993.62
2019-02-27T21:37:13.298Z,100996.81
2019-02-27T21:39:42.956Z,100997.23
2019-02-27T21:42:12.944Z,100993.63
2019-02-27T21:44:43.048Z,100993.81
2019-02-27T21:47:12.591Z,100998.33
2019-02-27T21:49:42.556Z,100997.16
2019-02-27T21:52:12.370Z,100991.89
2019-02-27T21:54:41.923Z,100993.45
2019-02-27T21:57:12.013Z,100990.40
2019-02-27T21:59:42.143Z,100988.97
2019-02-27T22:02:11.872Z,100991.39
2019-02-27T22:04:44.131Z,100988.45
2019-02-27T22:07:12.866Z,100989.09
2019-02-27T22:09:45.586Z,100989.71
2019-02-27T22:12:15.579Z,100992.90
2019-02-27T22:14:45.085Z,100998.11
2019-02-27T22:17:16.734Z,100994.47
2019-02-27T22:19:46.674Z,100990.11
2019-02-27T22:22:16.124Z,100985.94
2019-02-27T22:24:45.476Z,100990.23
2019-02-27T22:27:15.133Z,100987.13
2019-02-27T22:29:44.495Z,100982.63
2019-02-27T22:32:14.677Z,100984.50
2019-02-27T22:34:46.018Z,100984.95
2019-02-27T22:37:18.459Z,100975.51
2019-02-27T22:39:46.525Z,100974.03
2019-02-27T22:42:16.172Z,100970.81
2019-02-27T22:44:45.739Z,100963.45
2019-02-27T22:47:18.486Z,100963.91
2019-02-27T22:49:48.303Z,100960.75
2019-02-27T22:52:19.273Z,100958.05
2019-02-27T22:54:50.229Z,100957.77
2019-02-27T22:57:22.929Z,100955.92
2019-02-27T22:59:51.278Z,100959.98
2019-02-27T23:02:22.272Z,100952.07
2019-02-27T23:04:51.622Z,100949.51
2019-02-27T23:07:21.469Z,100944.88
2019-02-27T23:09:51.418Z,100943.64
2019-02-27T23:12:21.303Z,100940.94
2019-02-27T23:14:52.943Z,100953.66
2019-02-27T23:17:23.598Z,100948.47
2019-02-27T23:19:53.047Z,100947.07
2019-02-27T23:22:23.146Z,100944.44
2019-02-27T23:24:52.519Z,100950.56
2019-02-27T23:27:21.868Z,100948.70
2019-02-27T23:29:51.514Z,100943.07
2019-02-27T23:32:21.427Z,100937.53
2019-02-27T23:34:51.960Z,100934.41
2019-02-27T23:37:22.887Z,100936.67
2019-02-27T23:39:54.284Z,100929.63
2019-02-27T23:42:23.598Z,100932.02
2019-02-27T23:44:53.578Z,100931.56
2019-02-27T23:47:24.208Z,100936.33
2019-02-27T23:49:55.098Z,100935.40
2019-02-27T23:52:26.108Z,100936.95
2019-02-27T23:54:55.816Z,100932.29
2019-02-27T23:57:26.660Z,100933.16
2019-02-27T23:59:59.093Z,100935.30
